createdAt,value
2018-03-19T00:01:13.381Z,32.78
2018-03-19T00:03:41.711Z,25.27
2018-03-19T00:06:09.589Z,24.07
2018-03-19T00:08:37.514Z,15.23
2018-03-19T00:11:05.487Z,19.50
2018-03-19T00:13:34.326Z,17.33
2018-03-19T00:16:02.848Z,17.00
2018-03-19T00:18:30.700Z,14.97
2018-03-19T00:20:58.505Z,16.62
2018-03-19T00:23:26.118Z,15.83
2018-03-19T00:25:53.700Z,16.10
2018-03-19T00:28:21.636Z,15.38
2018-03-19T00:30:49.262Z,13.30
2018-03-19T00:33:16.867Z,18.00
2018-03-19T00:35:44.504Z,14.40
2018-03-19T00:38:12.384Z,20.77
2018-03-19T00:40:40.150Z,15.47
2018-03-19T00:43:07.928Z,16.57
2018-03-19T00:45:35.476Z,16.00
2018-03-19T00:48:04.259Z,20.15
2018-03-19T00:50:32.385Z,14.67
2018-03-19T00:53:00.942Z,20.93
2018-03-19T00:55:29.179Z,15.93
2018-03-19T00:57:56.699Z,17.67
2018-03-19T01:00:25.444Z,21.40
2018-03-19T01:02:54.168Z,15.60
2018-03-19T01:05:22.520Z,14.67
2018-03-19T01:07:50.909Z,15.93
2018-03-19T01:10:20.552Z,16.80
2018-03-19T01:12:48.088Z,16.80
2018-03-19T01:15:16.387Z,16.10
2018-03-19T01:17:44.058Z,19.27
2018-03-19T01:20:12.436Z,17.00
2018-03-19T01:22:40.711Z,17.17
2018-03-19T01:25:09.663Z,16.90
2018-03-19T01:27:37.265Z,16.90
2018-03-19T01:30:05.593Z,16.37
2018-03-19T01:32:33.399Z,20.63
2018-03-19T01:35:01.056Z,20.23
2018-03-19T01:37:28.701Z,17.33
2018-03-19T01:39:56.278Z,13.90
2018-03-19T01:42:23.840Z,17.17
2018-03-19T01:44:51.500Z,18.33
2018-03-19T01:47:19.024Z,20.13
2018-03-19T01:49:46.579Z,18.30
2018-03-19T01:52:14.120Z,17.73
2018-03-19T01:54:41.695Z,17.77
2018-03-19T01:57:09.232Z,16.60
2018-03-19T01:59:36.755Z,15.17
2018-03-19T02:02:04.325Z,15.87
2018-03-19T02:04:32.062Z,17.30
2018-03-19T02:06:59.623Z,13.33
2018-03-19T02:09:27.154Z,16.93
2018-03-19T02:11:54.719Z,19.62
2018-03-19T02:14:22.254Z,18.53
2018-03-19T02:16:49.810Z,19.67
2018-03-19T02:19:17.389Z,16.93
2018-03-19T02:21:44.959Z,17.70
2018-03-19T02:24:12.499Z,13.53
2018-03-19T02:26:40.060Z,18.00
2018-03-19T02:29:07.582Z,15.87
2018-03-19T02:31:35.148Z,18.83
2018-03-19T02:34:02.755Z,14.85
2018-03-19T02:36:30.308Z,13.63
2018-03-19T02:38:57.833Z,24.63
2018-03-19T02:41:25.403Z,13.30
2018-03-19T02:43:52.938Z,18.63
2018-03-19T02:46:20.492Z,18.13
2018-03-19T02:48:48.012Z,21.03
2018-03-19T02:51:15.591Z,15.18
2018-03-19T02:53:43.129Z,18.13
2018-03-19T02:56:10.684Z,19.23
2018-03-19T02:58:38.225Z,15.27
2018-03-19T03:01:05.793Z,15.40
2018-03-19T03:03:33.341Z,14.00
2018-03-19T03:06:00.960Z,21.07
2018-03-19T03:08:28.522Z,17.47
2018-03-19T03:10:56.096Z,13.75
2018-03-19T03:13:23.626Z,19.73
2018-03-19T03:15:51.180Z,12.93
2018-03-19T03:18:18.715Z,18.53
2018-03-19T03:20:46.324Z,17.17
2018-03-19T03:23:13.845Z,17.17
2018-03-19T03:25:41.400Z,14.93
2018-03-19T03:28:08.931Z,14.07
2018-03-19T03:30:36.515Z,13.23
2018-03-19T03:33:04.123Z,14.00
2018-03-19T03:35:31.650Z,17.27
2018-03-19T03:37:59.217Z,13.77
2018-03-19T03:40:26.761Z,17.97
2018-03-19T03:42:54.334Z,13.97
2018-03-19T03:45:21.875Z,20.17
2018-03-19T03:47:49.443Z,14.90
2018-03-19T03:50:16.980Z,14.63
2018-03-19T03:52:44.544Z,22.20
2018-03-19T03:55:12.076Z,15.63
2018-03-19T03:57:39.640Z,14.97
2018-03-19T04:00:07.511Z,15.93
2018-03-19T04:02:35.085Z,16.07
2018-03-19T04:05:02.832Z,18.00
2018-03-19T04:07:31.371Z,18.62
2018-03-19T04:09:59.002Z,14.93
2018-03-19T04:12:26.567Z,18.07
2018-03-19T04:14:54.161Z,15.20
2018-03-19T04:17:21.801Z,23.70
2018-03-19T04:19:49.353Z,17.33
2018-03-19T04:22:16.916Z,14.38
2018-03-19T04:24:44.460Z,16.63
2018-03-19T04:27:12.024Z,16.55
2018-03-19T04:29:39.565Z,17.15
2018-03-19T04:32:07.143Z,17.60
2018-03-19T04:34:34.669Z,15.73
2018-03-19T04:37:02.244Z,15.93
2018-03-19T04:39:29.766Z,16.63
2018-03-19T04:41:57.323Z,19.62
2018-03-19T04:44:24.851Z,15.43
2018-03-19T04:46:52.440Z,23.17
2018-03-19T04:49:19.985Z,20.10
2018-03-19T04:51:47.556Z,17.47
2018-03-19T04:54:15.089Z,18.80
2018-03-19T04:56:42.641Z,20.47
2018-03-19T04:59:10.164Z,13.93
2018-03-19T05:01:37.741Z,17.13
2018-03-19T05:04:05.263Z,19.83
2018-03-19T05:06:32.853Z,18.97
2018-03-19T05:09:00.396Z,17.30
2018-03-19T05:11:28.121Z,16.70
2018-03-19T05:13:55.682Z,21.20
2018-03-19T05:16:23.210Z,16.20
2018-03-19T05:18:50.782Z,16.40
2018-03-19T05:21:18.356Z,18.87
2018-03-19T05:23:45.920Z,18.73
2018-03-19T05:26:13.470Z,18.75
2018-03-19T05:28:41.039Z,22.13
2018-03-19T05:31:08.593Z,15.93
2018-03-19T05:33:36.172Z,19.27
2018-03-19T05:36:03.697Z,24.73
2018-03-19T05:38:31.648Z,19.35
2018-03-19T05:40:59.172Z,20.57
2018-03-19T05:43:26.735Z,18.83
2018-03-19T05:45:55.488Z,23.00
2018-03-19T05:48:23.368Z,18.53
2018-03-19T05:50:51.438Z,20.97
2018-03-19T05:53:19.044Z,22.97
2018-03-19T05:55:46.564Z,19.58
2018-03-19T05:58:14.134Z,22.70
2018-03-19T06:00:41.675Z,23.60
2018-03-19T06:03:09.227Z,22.15
2018-03-19T06:05:36.757Z,20.33
2018-03-19T06:08:04.331Z,17.47
2018-03-19T06:10:32.304Z,18.85
2018-03-19T06:13:01.324Z,21.13
2018-03-19T06:15:28.910Z,21.17
2018-03-19T06:17:56.492Z,18.83
2018-03-19T06:20:24.451Z,18.23
2018-03-19T06:22:51.996Z,20.00
2018-03-19T06:25:19.609Z,18.90
2018-03-19T06:27:47.174Z,19.90
2018-03-19T06:30:14.845Z,25.87
2018-03-19T06:32:42.409Z,20.43
2018-03-19T06:35:10.041Z,18.50
2018-03-19T06:37:37.713Z,18.70
2018-03-19T06:40:05.236Z,18.00
2018-03-19T06:42:32.796Z,19.07
2018-03-19T06:45:00.336Z,20.98
2018-03-19T06:47:27.914Z,19.10
2018-03-19T06:49:55.437Z,21.77
2018-03-19T06:52:22.997Z,20.60
2018-03-19T06:54:50.564Z,24.07
2018-03-19T06:57:18.124Z,26.70
2018-03-19T06:59:45.677Z,22.87
2018-03-19T07:04:46.979Z,22.13
2018-03-19T07:07:14.511Z,19.90
2018-03-19T07:09:42.072Z,26.08
2018-03-19T07:12:09.623Z,19.03
2018-03-19T07:14:37.179Z,20.27
2018-03-19T07:17:04.963Z,23.65
2018-03-19T07:19:32.540Z,19.70
2018-03-19T07:22:00.124Z,19.90
2018-03-19T07:24:27.656Z,22.43
2018-03-19T07:26:55.183Z,22.23
2018-03-19T07:29:22.744Z,25.57
2018-03-19T07:31:50.283Z,21.73
2018-03-19T07:34:17.931Z,21.43
2018-03-19T07:36:45.463Z,21.17
2018-03-19T07:39:13.020Z,20.57
2018-03-19T07:41:40.603Z,22.60
2018-03-19T07:44:08.159Z,21.57
2018-03-19T07:46:35.772Z,24.53
2018-03-19T07:49:03.338Z,18.27
2018-03-19T07:51:30.938Z,25.50
2018-03-19T07:53:58.504Z,26.00
2018-03-19T07:56:26.031Z,20.93
2018-03-19T07:58:53.612Z,22.23
2018-03-19T08:01:21.182Z,23.73
2018-03-19T08:03:48.763Z,25.15
2018-03-19T08:06:16.279Z,24.13
2018-03-19T08:08:43.836Z,19.35
2018-03-19T08:11:11.360Z,21.23
2018-03-19T08:13:38.926Z,25.20
2018-03-19T08:16:06.445Z,27.03
2018-03-19T08:18:34.035Z,26.27
2018-03-19T08:21:01.577Z,23.47
2018-03-19T08:23:29.152Z,24.47
2018-03-19T08:25:56.715Z,23.20
2018-03-19T08:28:24.260Z,25.00
2018-03-19T08:30:51.785Z,23.27
2018-03-19T08:33:21.942Z,21.67
2018-03-19T08:35:51.407Z,24.83
2018-03-19T08:38:21.884Z,21.40
2018-03-19T08:40:51.956Z,30.63
2018-03-19T08:43:21.769Z,23.30
2018-03-19T08:45:50.058Z,22.03
2018-03-19T08:48:19.065Z,22.17
2018-03-19T08:50:49.059Z,22.08
2018-03-19T08:53:18.711Z,21.90
2018-03-19T08:55:46.498Z,23.03
2018-03-19T08:58:15.788Z,24.37
2018-03-19T09:00:43.564Z,24.70
2018-03-19T09:03:11.117Z,22.03
2018-03-19T09:05:39.329Z,23.85
2018-03-19T09:08:07.642Z,22.70
2018-03-19T09:10:35.724Z,22.80
2018-03-19T09:13:04.445Z,19.53
2018-03-19T09:15:32.076Z,19.70
2018-03-19T09:18:00.601Z,24.33
2018-03-19T09:20:28.158Z,30.60
2018-03-19T09:22:56.472Z,25.27
2018-03-19T09:25:24.184Z,21.10
2018-03-19T09:27:54.533Z,19.73
2018-03-19T09:30:23.655Z,19.33
2018-03-19T09:32:51.732Z,23.50
2018-03-19T09:35:20.070Z,22.73
2018-03-19T09:37:47.596Z,22.27
2018-03-19T09:40:16.281Z,20.30
2018-03-19T09:42:43.871Z,21.63
2018-03-19T09:45:12.249Z,20.63
2018-03-19T09:47:39.879Z,20.17
2018-03-19T09:50:08.018Z,21.13
2018-03-19T09:52:36.115Z,19.87
2018-03-19T09:55:04.022Z,21.47
2018-03-19T09:57:31.536Z,20.70
2018-03-19T09:59:59.108Z,23.60
2018-03-19T10:02:27.984Z,18.73
2018-03-19T10:04:56.523Z,22.73
2018-03-19T10:07:24.167Z,20.77
2018-03-19T10:09:54.228Z,20.20
2018-03-19T10:12:23.865Z,19.17
2018-03-19T10:14:54.884Z,18.03
2018-03-19T10:17:25.418Z,18.95
2018-03-19T10:19:56.234Z,21.43
2018-03-19T10:22:24.935Z,18.93
2018-03-19T10:24:55.447Z,22.77
2018-03-19T10:27:23.755Z,20.23
2018-03-19T10:29:53.573Z,19.20
2018-03-19T10:32:21.123Z,21.00
2018-03-19T10:34:51.496Z,20.67
2018-03-19T10:37:21.228Z,22.47
2018-03-19T10:39:49.518Z,20.73
2018-03-19T10:42:18.051Z,20.63
2018-03-19T10:44:46.434Z,18.50
2018-03-19T10:47:15.324Z,23.10
2018-03-19T10:49:45.570Z,18.97
2018-03-19T10:52:16.707Z,20.57
2018-03-19T10:54:44.406Z,22.65
2018-03-19T10:57:14.838Z,19.57
2018-03-19T10:59:44.009Z,22.52
2018-03-19T11:05:23.222Z,22.77
2018-03-19T11:07:56.757Z,23.20
2018-03-19T11:10:27.363Z,20.43
2018-03-19T11:12:55.223Z,21.17
2018-03-19T11:15:23.238Z,22.67
2018-03-19T11:17:50.764Z,18.45
2018-03-19T11:20:21.629Z,23.10
2018-03-19T11:22:52.528Z,20.45
2018-03-19T11:25:21.297Z,22.73
2018-03-19T11:27:50.400Z,19.87
2018-03-19T11:30:18.580Z,22.62
2018-03-19T11:32:47.247Z,21.67
2018-03-19T11:35:17.764Z,21.20
2018-03-19T11:37:47.250Z,20.20
2018-03-19T11:40:17.727Z,18.90
2018-03-19T11:42:45.450Z,19.27
2018-03-19T11:45:13.145Z,18.50
2018-03-19T11:47:41.061Z,19.97
2018-03-19T11:50:08.977Z,19.70
2018-03-19T11:52:41.915Z,20.40
2018-03-19T11:55:15.024Z,18.50
2018-03-19T11:57:44.871Z,25.53
2018-03-19T12:00:12.474Z,22.60
2018-03-19T12:02:40.748Z,17.97
2018-03-19T12:05:08.277Z,22.00
2018-03-19T12:07:38.175Z,19.17
2018-03-19T12:10:07.513Z,20.67
2018-03-19T12:12:35.352Z,20.07
2018-03-19T12:15:05.363Z,19.10
2018-03-19T12:17:33.739Z,18.07
2018-03-19T12:20:02.667Z,18.43
2018-03-19T12:22:31.912Z,17.30
2018-03-19T12:25:02.803Z,17.10
2018-03-19T12:27:30.492Z,18.00
2018-03-19T12:29:58.012Z,18.87
2018-03-19T12:32:31.198Z,17.73
2018-03-19T12:34:59.220Z,18.62
2018-03-19T12:37:27.180Z,17.50
2018-03-19T12:39:55.232Z,17.73
2018-03-19T12:42:26.694Z,19.80
2018-03-19T12:44:58.408Z,18.33
2018-03-19T12:47:26.227Z,19.53
2018-03-19T12:49:55.329Z,24.53
2018-03-19T12:52:23.414Z,17.23
2018-03-19T12:54:50.980Z,21.60
2018-03-19T12:57:18.536Z,18.95
2018-03-19T12:59:46.051Z,19.13
2018-03-19T13:02:13.765Z,18.10
2018-03-19T13:04:41.293Z,19.40
2018-03-19T13:07:08.861Z,22.47
2018-03-19T13:09:36.425Z,22.03
2018-03-19T13:12:03.972Z,36.95
2018-03-19T13:14:31.492Z,26.40
2018-03-19T13:16:59.049Z,19.80
2018-03-19T13:19:26.752Z,19.70
2018-03-19T13:21:55.502Z,21.80
2018-03-19T13:24:23.057Z,20.00
2018-03-19T13:26:50.728Z,18.83
2018-03-19T13:29:18.267Z,17.37
2018-03-19T13:31:45.807Z,18.03
2018-03-19T13:34:13.366Z,17.27
2018-03-19T13:36:41.486Z,16.70
2018-03-19T13:39:09.132Z,15.57
2018-03-19T13:41:36.671Z,14.77
2018-03-19T13:44:04.316Z,17.27
2018-03-19T13:46:31.839Z,15.73
2018-03-19T13:48:59.403Z,20.67
2018-03-19T13:51:26.947Z,18.23
2018-03-19T13:53:54.504Z,19.77
2018-03-19T13:56:22.504Z,15.77
2018-03-19T13:58:50.107Z,15.60
2018-03-19T14:01:17.743Z,17.45
2018-03-19T14:03:45.299Z,14.70
2018-03-19T14:06:12.820Z,15.53
2018-03-19T14:08:40.743Z,17.07
2018-03-19T14:11:08.268Z,16.53
2018-03-19T14:13:35.815Z,16.27
2018-03-19T14:16:03.341Z,16.37
2018-03-19T14:18:30.895Z,17.97
2018-03-19T14:20:58.475Z,16.23
2018-03-19T14:23:26.066Z,15.23
2018-03-19T14:25:53.587Z,14.15
2018-03-19T14:28:21.209Z,14.63
2018-03-19T14:30:49.012Z,14.40
2018-03-19T14:33:16.564Z,21.70
2018-03-19T14:35:44.719Z,14.03
2018-03-19T14:38:12.267Z,16.10
2018-03-19T14:40:39.832Z,14.20
2018-03-19T14:43:10.173Z,15.63
2018-03-19T14:45:37.892Z,18.65
2018-03-19T14:48:05.429Z,21.70
2018-03-19T14:50:33.080Z,18.57
2018-03-19T14:53:00.562Z,18.27
2018-03-19T14:55:28.117Z,18.00
2018-03-19T14:57:56.288Z,15.90
2018-03-19T15:00:23.874Z,16.70
2018-03-19T15:02:52.957Z,18.10
2018-03-19T15:05:20.608Z,21.10
2018-03-19T15:07:48.140Z,17.70
2018-03-19T15:10:15.690Z,20.73
2018-03-19T15:12:43.204Z,20.47
2018-03-19T15:15:11.035Z,21.30
2018-03-19T15:17:38.559Z,19.77
2018-03-19T15:20:06.076Z,19.40
2018-03-19T15:22:33.624Z,18.87
2018-03-19T15:25:01.187Z,18.40
2018-03-19T15:27:28.748Z,23.70
2018-03-19T15:29:56.279Z,20.10
2018-03-19T15:32:23.829Z,19.75
2018-03-19T15:34:51.349Z,20.50
2018-03-19T15:37:18.961Z,22.70
2018-03-19T15:39:46.483Z,20.43
2018-03-19T15:42:14.036Z,23.13
2018-03-19T15:44:41.554Z,19.33
2018-03-19T15:47:09.114Z,23.03
2018-03-19T15:49:36.744Z,25.40
2018-03-19T15:52:04.294Z,21.17
2018-03-19T15:54:31.816Z,22.33
2018-03-19T15:56:59.381Z,21.83
2018-03-19T15:59:26.915Z,23.08
2018-03-19T16:01:54.472Z,23.93
2018-03-19T16:04:22.002Z,24.10
2018-03-19T16:06:49.573Z,25.33
2018-03-19T16:09:17.103Z,23.37
2018-03-19T16:11:44.659Z,22.00
2018-03-19T16:14:13.062Z,22.90
2018-03-19T16:16:44.708Z,20.80
2018-03-19T16:19:14.827Z,25.97
2018-03-19T16:21:43.071Z,23.27
2018-03-19T16:24:13.969Z,19.85
2018-03-19T16:26:42.423Z,19.67
2018-03-19T16:29:10.422Z,22.60
2018-03-19T16:31:39.191Z,20.63
2018-03-19T16:34:06.728Z,22.97
2018-03-19T16:36:34.507Z,23.23
2018-03-19T16:39:02.296Z,21.03
2018-03-19T16:41:30.060Z,23.80
2018-03-19T16:43:57.806Z,23.00
2018-03-19T16:46:27.038Z,22.00
2018-03-19T16:48:55.502Z,20.67
2018-03-19T16:51:23.571Z,22.60
2018-03-19T16:53:51.263Z,21.70
2018-03-19T16:56:20.150Z,21.30
2018-03-19T16:58:47.717Z,23.77
2018-03-19T17:01:15.886Z,22.42
2018-03-19T17:03:43.489Z,22.70
2018-03-19T17:06:11.427Z,24.92
2018-03-19T17:08:40.758Z,23.70
2018-03-19T17:11:09.444Z,23.40
2018-03-19T17:13:37.276Z,24.70
2018-03-19T17:16:06.476Z,22.00
2018-03-19T17:18:35.206Z,21.33
2018-03-19T17:21:05.030Z,24.77
2018-03-19T17:23:34.199Z,22.67
2018-03-19T17:26:05.250Z,23.17
2018-03-19T17:28:33.036Z,19.23
2018-03-19T17:31:04.146Z,18.77
2018-03-19T17:33:31.897Z,23.97
2018-03-19T17:35:59.476Z,18.00
2018-03-19T17:38:27.091Z,27.17
2018-03-19T17:40:57.268Z,20.13
2018-03-19T17:43:25.089Z,19.50
2018-03-19T17:45:52.752Z,37.70
2018-03-19T17:48:20.527Z,136.77
2018-03-19T17:50:48.046Z,98.40
2018-03-19T17:53:20.426Z,33.23
2018-03-19T17:55:50.275Z,25.70
2018-03-19T17:58:19.205Z,24.00
2018-03-19T18:00:46.803Z,20.42
2018-03-19T18:03:15.551Z,30.95
2018-03-19T18:05:43.813Z,26.42
2018-03-19T18:08:13.090Z,23.53
2018-03-19T18:10:42.843Z,21.40
2018-03-19T18:13:11.690Z,22.17
2018-03-19T18:15:40.036Z,24.27
2018-03-19T18:18:07.764Z,25.77
2018-03-19T18:20:35.365Z,25.67
2018-03-19T18:23:03.248Z,22.47
2018-03-19T18:25:30.876Z,26.27
2018-03-19T18:27:59.643Z,23.40
2018-03-19T18:30:27.705Z,24.90
2018-03-19T18:32:55.255Z,27.33
2018-03-19T18:35:23.153Z,28.77
2018-03-19T18:37:55.071Z,28.58
2018-03-19T18:40:23.191Z,29.77
2018-03-19T18:42:50.906Z,32.67
2018-03-19T18:45:18.721Z,28.60
2018-03-19T18:47:54.468Z,28.77
2018-03-19T18:50:25.133Z,26.13
2018-03-19T18:52:52.743Z,25.60
2018-03-19T18:55:20.383Z,22.80
2018-03-19T18:57:47.998Z,26.02
2018-03-19T19:00:15.596Z,28.13
2018-03-19T19:02:43.219Z,27.77
2018-03-19T19:05:10.765Z,22.73
2018-03-19T19:07:38.303Z,26.70
2018-03-19T19:10:05.855Z,26.87
2018-03-19T19:12:33.374Z,20.40
2018-03-19T19:15:00.937Z,22.07
2018-03-19T19:17:28.481Z,25.37
2018-03-19T19:19:56.048Z,23.90
2018-03-19T19:22:23.643Z,23.43
2018-03-19T19:27:29.355Z,27.40
2018-03-19T19:29:56.989Z,22.07
2018-03-19T19:32:24.592Z,25.97
2018-03-19T19:34:53.419Z,27.60
2018-03-19T19:37:20.959Z,27.67
2018-03-19T19:39:49.914Z,30.47
2018-03-19T19:42:17.601Z,25.57
2018-03-19T19:44:46.016Z,23.73
2018-03-19T19:47:18.394Z,25.97
2018-03-19T19:49:46.260Z,25.55
2018-03-19T19:52:15.410Z,25.10
2018-03-19T19:54:42.983Z,32.27
2018-03-19T19:57:11.003Z,26.57
2018-03-19T19:59:39.990Z,22.33
2018-03-19T20:02:07.834Z,22.23
2018-03-19T20:04:36.225Z,26.57
2018-03-19T20:07:03.876Z,24.50
2018-03-19T20:09:31.946Z,22.07
2018-03-19T20:12:00.124Z,19.77
2018-03-19T20:14:27.989Z,22.97
2018-03-19T20:16:56.384Z,23.57
2018-03-19T20:19:23.936Z,23.80
2018-03-19T20:21:51.656Z,24.40
2018-03-19T20:24:19.171Z,21.60
2018-03-19T20:26:46.893Z,24.03
2018-03-19T20:29:14.449Z,25.90
2018-03-19T20:31:42.015Z,22.63
2018-03-19T20:34:09.544Z,22.00
2018-03-19T20:36:37.126Z,22.40
2018-03-19T20:39:04.644Z,20.20
2018-03-19T20:41:32.176Z,22.23
2018-03-19T20:43:59.731Z,23.40
2018-03-19T20:46:27.260Z,27.00
2018-03-19T20:48:54.834Z,26.97
2018-03-19T20:51:22.351Z,20.10
2018-03-19T20:53:49.914Z,26.60
2018-03-19T20:56:17.436Z,23.73
2018-03-19T20:58:44.984Z,23.23
2018-03-19T21:01:12.535Z,25.57
2018-03-19T21:03:40.089Z,22.93
2018-03-19T21:06:07.603Z,26.70
2018-03-19T21:08:35.144Z,27.62
2018-03-19T21:11:02.699Z,24.30
2018-03-19T21:13:30.304Z,23.97
2018-03-19T21:15:58.138Z,26.17
2018-03-19T21:18:25.690Z,22.47
2018-03-19T21:20:54.029Z,23.20
2018-03-19T21:23:21.561Z,24.57
2018-03-19T21:25:49.171Z,25.30
2018-03-19T21:28:16.876Z,23.13
2018-03-19T21:30:44.566Z,23.97
2018-03-19T21:33:12.120Z,32.03
2018-03-19T21:35:40.097Z,33.07
2018-03-19T21:38:08.117Z,28.73
2018-03-19T21:40:35.647Z,22.57
2018-03-19T21:43:03.216Z,27.15
2018-03-19T21:45:30.743Z,24.80
2018-03-19T21:47:58.310Z,25.02
2018-03-19T21:50:25.858Z,21.97
2018-03-19T21:52:54.212Z,16.77
2018-03-19T21:55:21.751Z,21.83
2018-03-19T21:57:49.354Z,20.03
2018-03-19T22:00:16.884Z,16.07
2018-03-19T22:02:44.435Z,16.50
2018-03-19T22:05:11.964Z,16.77
2018-03-19T22:07:39.695Z,19.73
2018-03-19T22:10:07.237Z,16.70
2018-03-19T22:12:34.761Z,15.02
2018-03-19T22:15:02.363Z,17.70
2018-03-19T22:17:29.971Z,17.75
2018-03-19T22:19:57.535Z,16.77
2018-03-19T22:22:28.349Z,14.07
2018-03-19T22:24:57.846Z,17.40
2018-03-19T22:27:25.600Z,15.80
2018-03-19T22:29:53.160Z,16.20
2018-03-19T22:32:20.730Z,17.17
2018-03-19T22:34:48.277Z,15.45
2018-03-19T22:37:22.365Z,15.27
2018-03-19T22:39:51.489Z,18.23
2018-03-19T22:42:19.649Z,19.70
2018-03-19T22:44:47.980Z,18.23
2018-03-19T22:47:18.086Z,20.70
2018-03-19T22:49:47.156Z,15.80
2018-03-19T22:52:14.727Z,16.90
2018-03-19T22:54:43.688Z,17.27
2018-03-19T22:57:12.201Z,20.98
2018-03-19T22:59:41.054Z,21.30
2018-03-19T23:02:09.683Z,18.53
2018-03-19T23:04:51.640Z,18.45
2018-03-19T23:07:21.170Z,19.95
2018-03-19T23:09:48.808Z,21.47
2018-03-19T23:12:17.594Z,18.10
2018-03-19T23:14:46.075Z,18.80
2018-03-19T23:17:14.659Z,17.10
2018-03-19T23:19:44.709Z,20.77
2018-03-19T23:22:15.417Z,19.37
2018-03-19T23:24:45.018Z,16.60
2018-03-19T23:27:12.983Z,17.73
2018-03-19T23:29:41.399Z,15.63
2018-03-19T23:32:11.071Z,15.43
2018-03-19T23:34:40.042Z,17.50
2018-03-19T23:37:08.033Z,17.30
2018-03-19T23:39:37.297Z,18.30
2018-03-19T23:42:06.877Z,17.00
2018-03-19T23:44:37.330Z,16.77
2018-03-19T23:47:06.427Z,18.83
2018-03-19T23:49:36.680Z,17.23
2018-03-19T23:52:06.884Z,17.60
2018-03-19T23:54:35.004Z,16.17
2018-03-19T23:57:02.680Z,17.90
2018-03-19T23:59:30.249Z,18.27
